Time;durP1;ratioP1;P1;durP2;ratioP2;P2;SDS_P1;SDS_P2;PMS_P1;PMS_P2;Temp;Humidity;BMP_temperature;BMP_pressure;BME280_temperature;BME280_humidity;BME280_pressure;Samples;Min_cycle;Max_cycle;Signal;HPM_P1;HPM_P2
2023/03/27 00:01:24;;;;;;;2.25;2.05;;;18.30;65.00;;;;;;5054175;28;20108;-24
2023/03/27 00:03:52;;;;;;;2.33;2.13;;;18.30;65.00;;;;;;5053851;28;20036;-24
2023/03/27 00:06:19;;;;;;;3.20;2.33;;;18.30;65.00;;;;;;5053977;28;20067;-24
2023/03/27 00:08:50;;;;;;;3.75;2.20;;;18.30;65.00;;;;;;5053806;28;20045;-24
2023/03/27 00:11:16;;;;;;;3.10;2.10;;;18.20;65.00;;;;;;5053790;28;20039;-24
2023/03/27 00:13:43;;;;;;;2.15;1.95;;;18.20;65.00;;;;;;5053690;28;20025;-24
2023/03/27 00:16:10;;;;;;;2.60;2.10;;;18.20;65.00;;;;;;5054092;28;20500;-24
2023/03/27 00:18:37;;;;;;;2.45;2.00;;;18.20;65.00;;;;;;5053638;28;20104;-24
2023/03/27 00:21:03;;;;;;;2.30;2.00;;;18.20;65.00;;;;;;5053938;28;20021;-24
2023/03/27 00:23:30;;;;;;;2.83;2.03;;;18.20;65.10;;;;;;5053871;28;20369;-25
2023/03/27 00:25:57;;;;;;;2.60;1.98;;;18.20;65.00;;;;;;5052060;28;20058;-24
2023/03/27 00:28:28;;;;;;;2.88;2.05;;;18.20;65.00;;;;;;5053437;28;20025;-24
2023/03/27 00:30:56;;;;;;;2.53;1.92;;;18.20;65.00;;;;;;5053758;28;20028;-24
2023/03/27 00:33:23;;;;;;;2.47;2.10;;;18.20;65.00;;;;;;5053845;28;20036;-25
2023/03/27 00:35:49;;;;;;;2.17;1.90;;;18.20;65.10;;;;;;5053201;28;20055;-23
2023/03/27 00:38:17;;;;;;;4.68;2.15;;;18.20;65.10;;;;;;5053802;28;20438;-25
2023/03/27 00:40:45;;;;;;;2.10;1.90;;;18.20;65.10;;;;;;5053602;28;20033;-25
2023/03/27 00:43:25;;;;;;;2.70;2.10;;;18.20;65.10;;;;;;5053193;28;20123;-24
2023/03/27 00:45:56;;;;;;;2.90;2.20;;;18.20;65.00;;;;;;5052949;28;20075;-24
2023/03/27 00:48:24;;;;;;;2.40;1.80;;;18.20;65.00;;;;;;5053201;28;20473;-25
2023/03/27 00:50:51;;;;;;;2.90;2.10;;;18.20;65.00;;;;;;5053424;28;20044;-25
2023/03/27 00:53:24;;;;;;;2.55;1.85;;;18.20;65.00;;;;;;5053406;28;20025;-25
2023/03/27 00:55:54;;;;;;;1.90;1.75;;;18.20;65.00;;;;;;5053240;28;20029;-25
2023/03/27 00:58:26;;;;;;;3.22;2.13;;;18.20;65.10;;;;;;5053076;28;20029;-25
2023/03/27 01:00:55;;;;;;;3.33;1.98;;;18.20;65.10;;;;;;5053297;28;20025;-25
2023/03/27 01:03:25;;;;;;;2.30;1.90;;;18.20;65.10;;;;;;5052970;28;20056;-25
2023/03/27 01:05:53;;;;;;;2.30;2.10;;;18.20;65.20;;;;;;5053012;28;20037;-26
2023/03/27 01:08:20;;;;;;;2.10;1.83;;;18.20;65.20;;;;;;5053188;28;20059;-25
2023/03/27 01:11:15;;;;;;;3.13;1.70;;;18.20;65.10;;;;;;5052864;28;20040;-25
2023/03/27 01:14:00;;;;;;;2.33;1.90;;;18.20;65.20;;;;;;5016055;28;20115;-25
2023/03/27 01:16:39;;;;;;;2.08;1.88;;;18.20;65.10;;;;;;5052860;28;20471;-24
2023/03/27 01:19:34;;;;;;;2.20;2.00;;;18.10;65.10;;;;;;5052867;28;20081;-24
2023/03/27 01:22:23;;;;;;;2.22;1.90;;;18.10;65.20;;;;;;5052847;28;20036;-24
2023/03/27 01:25:19;;;;;;;1.92;1.83;;;18.10;65.30;;;;;;5032550;28;20086;-24
2023/03/27 01:28:11;;;;;;;1.92;1.80;;;18.10;65.30;;;;;;5052526;28;20036;-24
2023/03/27 01:30:49;;;;;;;2.20;2.00;;;18.10;65.30;;;;;;5051607;28;20120;-25
2023/03/27 01:33:56;;;;;;;2.15;1.80;;;18.10;65.30;;;;;;5053121;28;20024;-24
2023/03/27 01:36:50;;;;;;;1.85;1.73;;;18.10;65.40;;;;;;5053054;28;20033;-25
2023/03/27 01:39:31;;;;;;;1.67;1.58;;;18.10;65.30;;;;;;5052719;28;20523;-23
2023/03/27 01:42:15;;;;;;;2.13;1.92;;;18.10;65.30;;;;;;5052419;28;20029;-25
2023/03/27 01:45:00;;;;;;;2.22;1.80;;;18.10;65.40;;;;;;5052546;28;20021;-25
2023/03/27 01:47:47;;;;;;;1.85;1.70;;;18.10;65.40;;;;;;5053086;28;20041;-25
2023/03/27 01:50:24;;;;;;;1.98;1.67;;;18.10;65.40;;;;;;5052512;28;20397;-24
2023/03/27 01:52:55;;;;;;;2.13;1.55;;;18.10;65.40;;;;;;5052553;28;20498;-25
2023/03/27 01:55:26;;;;;;;1.73;1.63;;;18.10;65.40;;;;;;5052810;28;20025;-24
2023/03/27 01:58:04;;;;;;;2.90;2.17;;;18.10;65.40;;;;;;5052164;28;20040;-24
2023/03/27 02:00:30;;;;;;;2.17;1.95;;;18.10;65.50;;;;;;5052721;28;20029;-23
2023/03/27 02:03:01;;;;;;;1.65;1.55;;;18.10;65.50;;;;;;5052664;28;20032;-23
2023/03/27 02:05:40;;;;;;;1.92;1.60;;;18.10;65.50;;;;;;5052257;28;20083;-24
2023/03/27 02:08:23;;;;;;;1.90;1.70;;;18.10;65.50;;;;;;5051996;28;20517;-24
2023/03/27 02:10:55;;;;;;;1.85;1.58;;;18.10;65.50;;;;;;5055833;28;20064;-24
2023/03/27 02:13:35;;;;;;;2.53;1.90;;;18.00;65.50;;;;;;5056001;28;20028;-25
2023/03/27 02:16:02;;;;;;;1.70;1.60;;;18.00;65.60;;;;;;5055915;28;20025;-25
2023/03/27 02:18:34;;;;;;;1.90;1.63;;;18.00;65.60;;;;;;5056629;28;20103;-24
2023/03/27 02:21:01;;;;;;;2.03;1.70;;;18.00;65.60;;;;;;5055930;28;20033;-25
2023/03/27 02:23:29;;;;;;;2.58;1.80;;;18.00;65.60;;;;;;5055856;28;20063;-23
2023/03/27 02:25:56;;;;;;;2.88;1.70;;;18.00;65.60;;;;;;5055809;28;20087;-23
2023/03/27 02:29:04;;;;;;;2.20;2.00;;;18.00;65.60;;;;;;5056015;28;20059;-24
2023/03/27 02:32:02;;;;;;;1.92;1.60;;;18.00;65.70;;;;;;5050253;28;20100;-24
2023/03/27 02:34:43;;;;;;;1.75;1.52;;;18.00;65.70;;;;;;5055930;28;20029;-24
2023/03/27 02:37:53;;;;;;;1.83;1.65;;;18.00;65.70;;;;;;5055964;28;20132;-25
2023/03/27 02:41:16;;;;;;;1.77;1.45;;;18.00;65.70;;;;;;5039359;28;20041;-25
2023/03/27 02:44:04;;;;;;;2.10;1.55;;;18.00;65.80;;;;;;5013591;28;20568;-25
2023/03/27 02:46:53;;;;;;;1.70;1.60;;;18.00;65.70;;;;;;5013642;28;20040;-25
2023/03/27 02:49:26;;;;;;;1.83;1.70;;;18.00;65.80;;;;;;5005787;28;20062;-25
2023/03/27 02:51:56;;;;;;;;;;;18.00;65.70;;;;;;5013839;28;20041;-25
2023/03/27 02:54:29;;;;;;;2.17;1.83;;;17.90;65.90;;;;;;5013718;28;20000;-25
2023/03/27 02:57:01;;;;;;;1.75;1.60;;;18.00;65.70;;;;;;4997146;28;20465;-25
2023/03/27 02:59:34;;;;;;;1.67;1.58;;;18.00;65.70;;;;;;5013356;28;20026;-25
2023/03/27 03:02:04;;;;;;;2.35;1.65;;;18.00;65.70;;;;;;5013489;28;20085;-25
2023/03/27 03:04:40;;;;;;;1.60;1.40;;;18.00;65.70;;;;;;5013333;28;20075;-25
2023/03/27 03:07:10;;;;;;;3.03;1.73;;;17.90;65.70;;;;;;5013057;28;20042;-25
2023/03/27 03:09:37;;;;;;;2.78;1.85;;;18.00;65.70;;;;;;5013265;28;20522;-25
2023/03/27 03:12:03;;;;;;;1.67;1.50;;;18.00;65.70;;;;;;5013118;28;20064;-25
2023/03/27 03:14:34;;;;;;;2.25;1.75;;;17.90;65.70;;;;;;5040370;28;20068;-25
2023/03/27 03:17:00;;;;;;;1.63;1.52;;;17.90;65.70;;;;;;5055172;28;20029;-26
2023/03/27 03:19:26;;;;;;;2.72;1.75;;;17.90;65.80;;;;;;5055117;28;20047;-25
2023/03/27 03:21:52;;;;;;;1.65;1.55;;;17.90;65.80;;;;;;5053681;28;20469;-25
2023/03/27 03:24:20;;;;;;;1.63;1.52;;;17.90;65.80;;;;;;5054631;28;20056;-25
2023/03/27 03:26:48;;;;;;;1.80;1.70;;;17.90;65.80;;;;;;5054400;28;20037;-25
2023/03/27 03:29:16;;;;;;;1.60;1.50;;;17.90;65.80;;;;;;5054578;28;20043;-25
2023/03/27 03:31:43;;;;;;;2.97;1.45;;;17.90;65.80;;;;;;5054653;28;20108;-28
2023/03/27 03:34:17;;;;;;;1.77;1.67;;;17.90;65.90;;;;;;5054467;28;20036;-25
2023/03/27 03:36:47;;;;;;;2.67;1.80;;;17.90;65.80;;;;;;5054911;28;20450;-25
2023/03/27 03:39:15;;;;;;;1.90;1.50;;;17.90;65.90;;;;;;5054517;28;20180;-24
2023/03/27 03:41:41;;;;;;;2.28;1.60;;;17.90;65.90;;;;;;5054694;28;20127;-25
2023/03/27 03:44:09;;;;;;;1.48;1.38;;;17.90;65.90;;;;;;5054519;28;20033;-25
2023/03/27 03:46:35;;;;;;;2.42;1.77;;;17.90;65.90;;;;;;5054530;28;20051;-24
2023/03/27 03:49:03;;;;;;;2.88;1.77;;;17.90;65.90;;;;;;5054219;28;20043;-25
2023/03/27 03:51:30;;;;;;;1.77;1.40;;;17.90;65.90;;;;;;5054185;28;20042;-24
2023/03/27 03:53:56;;;;;;;1.73;1.50;;;17.90;65.90;;;;;;5053920;28;20044;-24
2023/03/27 03:56:23;;;;;;;1.50;1.40;;;17.90;65.90;;;;;;5054073;28;20021;-23
2023/03/27 03:58:49;;;;;;;1.73;1.60;;;17.90;65.90;;;;;;5053965;28;20043;-25
2023/03/27 04:01:19;;;;;;;1.83;1.73;;;17.90;66.00;;;;;;5054298;28;20032;-24
2023/03/27 04:03:46;;;;;;;1.52;1.42;;;17.90;66.00;;;;;;5054070;28;20029;-24
2023/03/27 04:06:12;;;;;;;1.98;1.33;;;17.90;65.90;;;;;;5054330;28;20017;-23
2023/03/27 04:08:38;;;;;;;1.42;1.33;;;17.90;66.00;;;;;;5053661;28;20061;-24
2023/03/27 04:11:05;;;;;;;1.55;1.45;;;17.90;66.00;;;;;;5053875;28;20054;-24
2023/03/27 04:13:31;;;;;;;1.92;1.58;;;17.90;66.00;;;;;;5054059;28;20032;-24
2023/03/27 04:16:00;;;;;;;1.52;1.42;;;17.90;66.00;;;;;;5053518;28;20025;-25
2023/03/27 04:18:31;;;;;;;2.58;1.67;;;17.90;66.00;;;;;;5053670;28;20392;-24
2023/03/27 04:20:58;;;;;;;1.80;1.30;;;17.90;66.00;;;;;;5053658;28;20044;-24
2023/03/27 04:23:30;;;;;;;1.73;1.58;;;17.90;66.00;;;;;;5052395;28;20385;-23
2023/03/27 04:26:01;;;;;;;1.87;1.50;;;17.90;66.00;;;;;;5053280;28;20040;-24
2023/03/27 04:28:33;;;;;;;2.20;1.63;;;17.90;66.00;;;;;;5053465;28;20162;-24
2023/03/27 04:31:05;;;;;;;1.52;1.40;;;17.90;66.00;;;;;;5053460;28;20024;-25
2023/03/27 04:33:38;;;;;;;1.40;1.30;;;17.90;66.00;;;;;;5053312;28;20392;-24
2023/03/27 04:36:07;;;;;;;;;;;17.90;66.00;;;;;;5053657;28;20477;-23
2023/03/27 04:38:37;;;;;;;1.55;1.45;;;17.90;66.20;;;;;;5053676;28;19905;-23
2023/03/27 04:41:04;;;;;;;1.60;1.50;;;17.90;66.00;;;;;;5053457;28;20127;-24
2023/03/27 04:43:30;;;;;;;1.42;1.33;;;17.90;66.00;;;;;;5053168;28;20028;-22
2023/03/27 04:45:56;;;;;;;1.27;1.17;;;17.90;66.10;;;;;;5053041;28;20033;-23
2023/03/27 04:48:22;;;;;;;1.50;1.40;;;17.90;66.10;;;;;;5053181;28;20025;-23
2023/03/27 04:50:48;;;;;;;1.48;1.30;;;17.90;66.10;;;;;;5053073;28;20032;-23
2023/03/27 04:53:15;;;;;;;1.23;1.20;;;17.90;66.10;;;;;;5053081;28;20025;-24
2023/03/27 04:55:44;;;;;;;2.75;1.30;;;17.90;66.10;;;;;;5053086;28;20025;-24
2023/03/27 04:58:11;;;;;;;1.88;1.25;;;17.90;66.10;;;;;;5053232;28;20032;-24
2023/03/27 05:00:38;;;;;;;1.45;1.27;;;17.90;66.10;;;;;;5053354;28;20032;-23
2023/03/27 05:03:04;;;;;;;1.63;1.52;;;17.90;66.10;;;;;;5052914;28;20033;-23
2023/03/27 05:05:30;;;;;;;1.55;1.30;;;17.90;66.20;;;;;;5053216;28;20461;-24
2023/03/27 05:07:57;;;;;;;2.67;1.48;;;17.90;66.20;;;;;;5052610;28;20505;-24
2023/03/27 05:10:23;;;;;;;1.33;1.23;;;17.80;66.10;;;;;;5053187;28;20049;-24
2023/03/27 05:12:51;;;;;;;2.22;1.60;;;17.80;66.10;;;;;;5052815;28;20032;-23
2023/03/27 05:15:18;;;;;;;1.42;1.33;;;17.90;66.20;;;;;;5052919;28;20036;-24
2023/03/27 05:17:46;;;;;;;1.83;1.70;;;17.80;66.20;;;;;;5052920;28;20032;-24
2023/03/27 05:20:18;;;;;;;1.10;1.10;;;17.80;66.20;;;;;;5053364;28;20480;-24
2023/03/27 05:22:44;;;;;;;1.42;1.33;;;17.90;66.20;;;;;;5052866;28;20365;-23
2023/03/27 05:25:12;;;;;;;1.75;1.50;;;17.80;66.20;;;;;;5052941;28;20017;-24
2023/03/27 05:27:46;;;;;;;1.48;1.38;;;17.80;66.20;;;;;;5053187;28;20036;-23
2023/03/27 05:30:19;;;;;;;1.38;1.20;;;17.80;66.20;;;;;;5052917;28;20035;-24
2023/03/27 05:32:53;;;;;;;1.95;1.67;;;17.80;66.30;;;;;;5053079;28;20036;-25
2023/03/27 05:35:22;;;;;;;1.60;1.50;;;17.80;66.30;;;;;;5052723;28;20362;-24
2023/03/27 05:37:50;;;;;;;1.30;1.20;;;17.80;66.30;;;;;;5052759;28;20029;-23
2023/03/27 05:40:21;;;;;;;1.83;1.50;;;17.80;66.30;;;;;;5052707;28;20032;-24
2023/03/27 05:42:49;;;;;;;1.50;1.35;;;17.80;66.30;;;;;;5052578;28;20029;-23
2023/03/27 05:45:17;;;;;;;1.52;1.30;;;17.80;66.30;;;;;;5055276;28;20111;-24
2023/03/27 05:47:52;;;;;;;2.47;1.30;;;17.80;66.30;;;;;;5056367;28;20028;-24
2023/03/27 05:50:21;;;;;;;2.00;1.27;;;17.80;66.20;;;;;;5056598;28;20388;-24
2023/03/27 05:52:53;;;;;;;1.65;1.50;;;17.80;66.20;;;;;;5056772;28;20492;-24
2023/03/27 05:55:18;;;;;;;3.17;1.50;;;17.90;66.20;;;;;;5056322;28;20037;-23
2023/03/27 05:57:44;;;;;;;3.13;1.60;;;17.90;66.20;;;;;;5055927;28;20043;-24
2023/03/27 06:00:15;;;;;;;2.10;1.52;;;17.90;66.30;;;;;;5056391;28;20083;-24
2023/03/27 06:02:43;;;;;;;2.53;1.40;;;17.90;66.30;;;;;;5056266;28;20508;-24
2023/03/27 06:05:14;;;;;;;2.55;1.50;;;18.00;66.40;;;;;;5056365;28;20100;-24
2023/03/27 06:07:44;;;;;;;4.63;1.88;;;18.00;66.40;;;;;;5056090;28;20467;-23
2023/03/27 06:10:12;;;;;;;6.97;1.50;;;18.10;66.40;;;;;;5056006;28;20457;-23
2023/03/27 06:12:38;;;;;;;2.50;1.42;;;18.20;66.30;;;;;;5056172;28;20021;-23
2023/03/27 06:15:06;;;;;;;2.22;1.38;;;18.20;66.30;;;;;;5056244;28;20075;-24
2023/03/27 06:17:33;;;;;;;2.35;1.52;;;18.20;66.20;;;;;;5054756;28;20032;-25
2023/03/27 06:19:59;;;;;;;2.80;1.30;;;18.30;66.30;;;;;;5055880;28;20536;-25
2023/03/27 06:22:26;;;;;;;1.60;1.50;;;18.30;66.30;;;;;;5055883;28;20072;-25
2023/03/27 06:24:54;;;;;;;2.47;1.60;;;18.30;66.30;;;;;;5055775;28;20033;-25
2023/03/27 06:27:20;;;;;;;2.28;1.52;;;18.30;66.30;;;;;;5055929;28;20021;-25
2023/03/27 06:29:46;;;;;;;3.97;1.65;;;18.30;66.40;;;;;;5055392;28;20036;-25
2023/03/27 06:32:13;;;;;;;1.67;1.58;;;18.30;66.40;;;;;;5055765;28;20138;-24
2023/03/27 06:34:39;;;;;;;2.28;1.60;;;18.20;66.50;;;;;;5056257;28;20104;-25
2023/03/27 06:37:04;;;;;;;2.63;1.60;;;18.30;66.50;;;;;;5055931;28;20223;-24
2023/03/27 06:39:30;;;;;;;4.22;1.75;;;18.20;66.50;;;;;;5055727;28;20083;-24
2023/03/27 06:41:56;;;;;;;2.25;1.42;;;18.30;66.60;;;;;;5055296;28;20029;-25
2023/03/27 06:44:22;;;;;;;3.08;1.73;;;18.20;66.60;;;;;;5055425;28;20021;-24
2023/03/27 06:46:48;;;;;;;1.98;1.63;;;18.20;66.50;;;;;;5054058;28;20044;-24
2023/03/27 06:49:14;;;;;;;9.90;2.30;;;18.20;66.60;;;;;;5055377;28;20484;-24
2023/03/27 06:51:40;;;;;;;4.40;2.00;;;18.20;66.60;;;;;;5055676;28;20039;-23
2023/03/27 06:54:06;;;;;;;3.50;1.85;;;18.20;66.50;;;;;;5055078;28;20024;-24
2023/03/27 06:56:32;;;;;;;4.07;1.80;;;18.20;66.60;;;;;;5055268;28;20045;-23
2023/03/27 06:58:58;;;;;;;3.13;1.52;;;18.20;66.60;;;;;;5055170;28;20556;-24
2023/03/27 07:01:24;;;;;;;2.45;1.60;;;18.20;66.60;;;;;;5055418;28;20035;-24
2023/03/27 07:03:49;;;;;;;2.15;1.58;;;18.20;66.70;;;;;;5055217;28;20413;-24
2023/03/27 07:06:18;;;;;;;2.67;1.70;;;18.20;66.70;;;;;;5055013;28;20538;-24
2023/03/27 07:08:44;;;;;;;2.03;1.60;;;18.20;66.70;;;;;;5054882;28;20080;-24
2023/03/27 07:11:10;;;;;;;2.80;1.40;;;18.20;66.70;;;;;;5055315;28;20053;-24
2023/03/27 07:13:36;;;;;;;2.60;1.75;;;18.10;66.70;;;;;;5053646;28;20060;-24
2023/03/27 07:16:02;;;;;;;2.40;1.63;;;18.20;66.70;;;;;;5054821;28;20068;-23
2023/03/27 07:18:27;;;;;;;2.20;1.40;;;18.10;66.70;;;;;;5054886;28;20035;-25
2023/03/27 07:20:53;;;;;;;2.65;1.50;;;18.20;66.70;;;;;;5054759;28;20017;-24
2023/03/27 07:23:19;;;;;;;2.75;1.55;;;18.20;66.70;;;;;;5055052;28;20065;-24
2023/03/27 07:25:45;;;;;;;1.98;1.38;;;18.20;66.70;;;;;;5054641;28;20110;-24
2023/03/27 07:28:15;;;;;;;3.58;1.50;;;18.20;66.70;;;;;;5054939;28;20068;-24
2023/03/27 07:30:41;;;;;;;2.88;1.83;;;18.20;66.70;;;;;;5054674;28;20446;-24
2023/03/27 07:33:08;;;;;;;2.47;1.58;;;18.20;66.60;;;;;;5054573;28;20107;-24
2023/03/27 07:35:40;;;;;;;2.38;1.45;;;18.20;66.60;;;;;;5054583;28;20476;-24
2023/03/27 07:38:05;;;;;;;2.33;1.60;;;18.20;66.60;;;;;;5054632;28;20488;-24
2023/03/27 07:40:32;;;;;;;2.40;1.70;;;18.30;66.50;;;;;;5054419;28;20519;-23
2023/03/27 07:42:58;;;;;;;1.70;1.60;;;18.30;66.40;;;;;;5054611;28;20087;-24
2023/03/27 07:45:24;;;;;;;2.90;1.70;;;18.40;66.30;;;;;;5054312;28;20040;-25
2023/03/27 07:47:51;;;;;;;1.90;1.38;;;18.50;66.10;;;;;;5054111;28;20025;-24
2023/03/27 07:50:20;;;;;;;2.63;1.80;;;18.60;66.00;;;;;;5054244;28;20538;-24
2023/03/27 07:52:48;;;;;;;2.03;1.40;;;18.70;65.80;;;;;;5054311;28;20057;-24
2023/03/27 07:55:17;;;;;;;1.80;1.60;;;18.80;65.60;;;;;;5054078;28;20461;-24
2023/03/27 07:57:46;;;;;;;2.38;1.55;;;18.80;65.50;;;;;;5053753;28;20024;-24
2023/03/27 08:00:14;;;;;;;3.17;2.20;;;18.90;65.30;;;;;;5054172;28;20060;-26
2023/03/27 08:02:41;;;;;;;3.65;2.00;;;18.90;65.20;;;;;;5054229;28;20029;-26
2023/03/27 08:05:08;;;;;;;2.17;1.77;;;19.00;65.00;;;;;;5053850;28;20032;-24
2023/03/27 08:07:35;;;;;;;3.92;1.90;;;19.00;64.90;;;;;;5053032;28;20114;-24
2023/03/27 08:10:04;;;;;;;2.60;1.80;;;19.10;64.70;;;;;;5053702;28;20487;-23
2023/03/27 08:12:31;;;;;;;2.55;1.88;;;19.10;64.70;;;;;;5054452;28;20036;-25
2023/03/27 08:14:58;;;;;;;1.67;1.58;;;19.20;64.70;;;;;;5054086;28;20036;-24
2023/03/27 08:17:27;;;;;;;4.72;1.77;;;19.20;64.50;;;;;;5054078;28;20107;-25
2023/03/27 08:19:53;;;;;;;3.60;2.22;;;19.20;64.50;;;;;;5053487;28;20499;-26
2023/03/27 08:22:20;;;;;;;2.75;2.00;;;19.30;64.40;;;;;;5054061;28;20354;-25
2023/03/27 08:24:47;;;;;;;2.17;1.65;;;19.30;64.30;;;;;;5052435;28;20385;-23
2023/03/27 08:27:14;;;;;;;3.78;1.95;;;19.40;64.30;;;;;;5053625;28;20017;-24
2023/03/27 08:29:43;;;;;;;1.77;1.60;;;19.40;64.20;;;;;;5053299;28;20070;-24
2023/03/27 08:32:10;;;;;;;3.53;1.80;;;19.40;64.20;;;;;;5053538;28;20444;-24
2023/03/27 08:34:36;;;;;;;2.60;2.08;;;19.40;64.10;;;;;;5053803;28;20055;-24
2023/03/27 08:37:03;;;;;;;1.60;1.35;;;19.40;64.00;;;;;;5053736;28;20159;-24
2023/03/27 08:39:32;;;;;;;4.30;1.60;;;19.40;64.00;;;;;;5053341;28;20147;-24
2023/03/27 08:42:01;;;;;;;1.85;1.63;;;19.40;64.00;;;;;;5053118;28;20070;-23
2023/03/27 08:44:28;;;;;;;3.65;2.10;;;19.50;64.00;;;;;;5053151;28;20040;-22
2023/03/27 08:46:59;;;;;;;2.13;1.90;;;19.50;63.90;;;;;;5053427;28;20134;-23
2023/03/27 08:49:33;;;;;;;2.25;2.05;;;19.50;63.80;;;;;;5053261;28;20028;-24
2023/03/27 08:52:07;;;;;;;1.67;1.38;;;19.50;63.70;;;;;;5053243;28;20021;-24
2023/03/27 08:54:36;;;;;;;2.53;1.90;;;19.50;63.70;;;;;;5053474;28;20029;-24
2023/03/27 08:57:17;;;;;;;2.38;1.45;;;19.60;63.70;;;;;;5053442;28;20049;-24
2023/03/27 08:59:43;;;;;;;1.33;1.23;;;19.60;63.70;;;;;;5052779;28;20104;-23
2023/03/27 09:02:36;;;;;;;2.10;1.60;;;19.60;63.70;;;;;;5053342;28;20054;-23
2023/03/27 09:05:16;;;;;;;1.58;1.48;;;19.60;63.70;;;;;;5053275;28;20118;-23
2023/03/27 09:08:09;;;;;;;2.05;1.52;;;19.70;63.70;;;;;;5052524;28;20523;-23
2023/03/27 09:10:42;;;;;;;1.70;1.52;;;19.70;63.80;;;;;;5053610;28;20021;-24
2023/03/27 09:13:15;;;;;;;1.98;1.58;;;19.70;63.70;;;;;;5053176;28;20056;-25
2023/03/27 09:15:46;;;;;;;;;;;19.70;63.70;;;;;;5053435;28;20063;-25
2023/03/27 09:18:20;;;;;;;2.22;1.63;;;19.70;63.80;;;;;;5053797;28;19940;-23
2023/03/27 09:20:52;;;;;;;1.83;1.50;;;19.70;63.70;;;;;;5057475;28;20051;-23
2023/03/27 09:23:21;;;;;;;2.92;1.52;;;19.70;63.70;;;;;;5057326;28;20044;-23
2023/03/27 09:25:54;;;;;;;2.10;1.58;;;19.80;63.70;;;;;;5056714;28;20021;-23
2023/03/27 09:28:28;;;;;;;1.85;1.35;;;19.80;63.70;;;;;;5056832;28;20546;-23
2023/03/27 09:30:56;;;;;;;1.50;1.40;;;19.80;63.80;;;;;;5056741;28;20480;-26
2023/03/27 09:33:23;;;;;;;2.13;1.67;;;19.80;63.80;;;;;;5057063;28;20033;-26
2023/03/27 09:35:49;;;;;;;2.85;1.92;;;19.80;63.70;;;;;;5056489;28;20021;-25
2023/03/27 09:38:32;;;;;;;2.47;1.52;;;19.90;63.60;;;;;;5056836;28;20021;-25
2023/03/27 09:41:06;;;;;;;3.53;1.75;;;19.80;63.60;;;;;;5057143;28;20049;-24
2023/03/27 09:43:55;;;;;;;4.05;1.90;;;19.80;63.40;;;;;;5056766;28;20376;-25
2023/03/27 09:46:24;;;;;;;4.93;1.70;;;19.80;63.00;;;;;;5056438;28;20086;-25
2023/03/27 09:49:13;;;;;;;2.83;1.83;;;19.80;62.90;;;;;;5056445;28;20033;-24
2023/03/27 09:51:44;;;;;;;3.80;2.13;;;19.80;62.70;;;;;;5056513;28;20416;-23
2023/03/27 09:54:13;;;;;;;2.53;1.40;;;19.70;62.20;;;;;;5056758;28;20119;-25
2023/03/27 09:56:53;;;;;;;3.13;1.63;;;19.70;62.00;;;;;;5056339;28;20477;-25
2023/03/27 09:59:32;;;;;;;3.38;1.67;;;19.70;61.80;;;;;;5056405;28;20040;-26
2023/03/27 10:02:08;;;;;;;2.85;1.50;;;19.70;61.80;;;;;;5056562;28;20021;-24
2023/03/27 10:04:34;;;;;;;4.60;1.58;;;19.70;61.80;;;;;;5056649;28;20389;-23
2023/03/27 10:07:05;;;;;;;3.83;1.50;;;19.70;61.80;;;;;;5056026;28;20065;-23
2023/03/27 10:09:34;;;;;;;1.75;1.45;;;19.80;61.70;;;;;;5056561;28;20025;-25
2023/03/27 10:12:07;;;;;;;1.40;1.30;;;19.70;61.70;;;;;;5056240;28;20040;-25
2023/03/27 10:14:46;;;;;;;1.58;1.33;;;19.80;61.70;;;;;;5056058;28;20029;-25
2023/03/27 10:17:23;;;;;;;2.67;1.50;;;19.80;61.60;;;;;;5056330;28;20029;-25
2023/03/27 10:19:53;;;;;;;1.98;1.40;;;19.80;61.60;;;;;;5056115;28;20040;-24
2023/03/27 10:22:31;;;;;;;2.72;1.30;;;19.80;61.60;;;;;;5055941;28;20082;-25
2023/03/27 10:25:06;;;;;;;3.70;1.67;;;19.80;61.60;;;;;;5055913;28;20048;-25
2023/03/27 10:27:35;;;;;;;1.83;1.65;;;19.80;61.50;;;;;;5055758;28;20029;-24
2023/03/27 10:30:01;;;;;;;2.92;1.48;;;19.80;61.50;;;;;;5054671;28;20040;-24
2023/03/27 10:32:45;;;;;;;2.38;1.10;;;19.90;61.50;;;;;;5055735;28;20056;-24
2023/03/27 10:35:27;;;;;;;3.20;1.50;;;19.90;61.40;;;;;;5055896;28;20025;-24
2023/03/27 10:37:54;;;;;;;3.45;1.30;;;19.80;61.40;;;;;;5055492;28;20035;-25
2023/03/27 10:40:24;;;;;;;1.92;0.93;;;19.80;61.40;;;;;;5055629;28;20037;-25
2023/03/27 10:42:53;;;;;;;2.42;1.40;;;19.80;61.40;;;;;;5055915;28;20052;-25
2023/03/27 10:45:20;;;;;;;3.00;1.13;;;19.80;61.40;;;;;;5055665;28;20032;-24
2023/03/27 10:47:59;;;;;;;1.85;1.30;;;19.80;61.40;;;;;;5055551;28;20025;-24
2023/03/27 10:50:37;;;;;;;1.60;1.20;;;19.80;61.30;;;;;;5055460;28;20373;-23
2023/03/27 10:53:32;;;;;;;1.10;1.00;;;19.80;61.30;;;;;;5055546;28;20017;-25
2023/03/27 10:56:12;;;;;;;2.45;0.93;;;19.80;61.30;;;;;;5051480;28;20120;-24
2023/03/27 10:59:03;;;;;;;1.58;1.00;;;19.80;61.30;;;;;;5053999;28;20056;-25
2023/03/27 11:01:33;;;;;;;2.10;1.00;;;19.80;61.30;;;;;;5055366;28;20065;-26
2023/03/27 11:04:04;;;;;;;3.20;1.67;;;19.80;61.40;;;;;;5054954;28;20025;-24
2023/03/27 11:06:34;;;;;;;2.45;1.20;;;19.80;61.40;;;;;;5053841;28;20067;-25
2023/03/27 11:09:09;;;;;;;1.98;1.13;;;19.70;61.40;;;;;;5055341;28;20053;-25
2023/03/27 11:11:40;;;;;;;1.67;1.10;;;19.70;61.50;;;;;;5055182;28;20028;-23
2023/03/27 11:14:47;;;;;;;1.40;1.10;;;19.80;61.50;;;;;;5054782;28;20029;-24
2023/03/27 11:17:19;;;;;;;1.70;1.00;;;19.80;61.50;;;;;;5049339;28;20027;-24
2023/03/27 11:19:52;;;;;;;0.95;0.93;;;19.70;61.50;;;;;;5054627;28;20087;-24
2023/03/27 11:22:44;;;;;;;2.15;1.13;;;19.70;61.50;;;;;;5055227;28;20025;-25
2023/03/27 11:25:23;;;;;;;0.90;0.77;;;19.70;61.50;;;;;;5054696;28;20047;-23
2023/03/27 11:28:23;;;;;;;2.17;0.95;;;19.70;61.60;;;;;;5054638;28;20500;-24
2023/03/27 11:31:13;;;;;;;2.15;0.85;;;19.70;61.60;;;;;;5055078;28;20048;-24
2023/03/27 11:34:05;;;;;;;1.35;0.80;;;19.60;61.70;;;;;;5053496;28;20028;-24
2023/03/27 11:36:38;;;;;;;2.47;0.95;;;19.60;61.70;;;;;;5054612;28;20082;-23
2023/03/27 11:39:14;;;;;;;1.10;0.93;;;19.60;61.80;;;;;;5054799;28;20075;-24
2023/03/27 11:41:46;;;;;;;1.98;1.10;;;19.60;61.80;;;;;;5053185;28;20055;-23
2023/03/27 11:44:12;;;;;;;0.73;0.70;;;19.60;61.80;;;;;;5054351;28;20028;-25
2023/03/27 11:49:58;;;;;;;1.58;0.80;;;19.60;61.90;;;;;;5054163;28;20052;-24
2023/03/27 11:52:43;;;;;;;0.93;0.90;;;19.50;61.90;;;;;;5054161;28;20044;-25
2023/03/27 11:55:47;;;;;;;1.20;0.60;;;19.50;62.00;;;;;;5054381;28;20381;-25
2023/03/27 11:58:32;;;;;;;0.77;0.60;;;19.50;61.90;;;;;;5054373;28;20116;-24
2023/03/27 12:01:06;;;;;;;0.70;0.70;;;19.50;62.00;;;;;;5052666;28;20025;-24
2023/03/27 12:03:44;;;;;;;1.27;0.93;;;19.50;62.00;;;;;;5054373;28;20047;-25
2023/03/27 12:06:23;;;;;;;1.83;0.80;;;19.50;62.10;;;;;;5054351;28;20516;-23
2023/03/27 12:09:14;;;;;;;0.95;0.80;;;19.50;62.00;;;;;;5053810;28;20535;-24
2023/03/27 12:12:12;;;;;;;1.85;0.68;;;19.40;62.00;;;;;;5054233;28;20041;-25
2023/03/27 12:15:08;;;;;;;0.60;0.60;;;19.50;62.00;;;;;;5054136;28;20056;-25
2023/03/27 12:17:44;;;;;;;0.70;0.70;;;19.50;62.10;;;;;;5046319;28;20031;-24
2023/03/27 12:20:45;;;;;;;0.80;0.80;;;19.50;62.10;;;;;;5054403;28;20060;-25
2023/03/27 12:23:31;;;;;;;0.50;0.50;;;19.50;62.10;;;;;;5053992;28;20029;-24
2023/03/27 12:26:18;;;;;;;0.80;0.80;;;19.50;62.10;;;;;;5053420;28;20095;-25
2023/03/27 12:28:55;;;;;;;0.60;0.60;;;19.40;62.10;;;;;;5053866;28;20033;-25
2023/03/27 12:31:30;;;;;;;0.55;0.55;;;19.40;62.10;;;;;;5053949;28;20064;-24
2023/03/27 12:34:17;;;;;;;0.75;0.70;;;19.40;62.20;;;;;;5053254;28;20029;-24
2023/03/27 12:36:46;;;;;;;0.73;0.60;;;19.50;62.10;;;;;;5053781;28;20028;-25
2023/03/27 12:39:24;;;;;;;0.50;0.50;;;19.40;62.20;;;;;;5053728;28;20037;-25
2023/03/27 12:41:52;;;;;;;0.65;0.52;;;19.50;62.10;;;;;;5053125;28;20534;-24
2023/03/27 12:44:31;;;;;;;2.65;0.70;;;19.40;62.20;;;;;;5053658;28;20151;-24
2023/03/27 12:47:28;;;;;;;0.40;0.40;;;19.40;62.10;;;;;;5053845;28;20056;-24
2023/03/27 12:49:59;;;;;;;1.00;0.50;;;19.50;62.10;;;;;;5044871;28;20045;-24
2023/03/27 12:52:27;;;;;;;0.43;0.43;;;19.40;62.20;;;;;;5053547;28;20021;-26
2023/03/27 12:55:30;;;;;;;0.57;0.57;;;19.40;62.10;;;;;;5053052;28;20115;-25
2023/03/27 12:57:57;;;;;;;0.40;0.40;;;19.40;62.20;;;;;;5050996;28;20039;-23
2023/03/27 13:00:26;;;;;;;1.08;0.68;;;19.40;62.20;;;;;;5052978;28;20338;-25
2023/03/27 13:03:10;;;;;;;1.20;0.50;;;19.40;62.20;;;;;;5053068;28;20090;-25
2023/03/27 13:05:57;;;;;;;1.08;0.43;;;19.40;62.10;;;;;;5053182;28;20051;-25
2023/03/27 13:08:36;;;;;;;0.55;0.30;;;19.40;62.20;;;;;;5052938;28;20103;-24
2023/03/27 13:11:38;;;;;;;0.50;0.38;;;19.40;62.20;;;;;;5053025;28;20029;-23
2023/03/27 13:14:30;;;;;;;0.47;0.38;;;19.40;62.10;;;;;;5052647;28;20495;-24
2023/03/27 13:17:40;;;;;;;0.50;0.50;;;19.40;62.10;;;;;;5053347;28;20033;-25
2023/03/27 13:20:15;;;;;;;0.32;0.32;;;19.40;62.10;;;;;;5052955;28;20025;-25
2023/03/27 13:23:09;;;;;;;0.88;0.50;;;19.40;62.10;;;;;;5052940;28;20111;-24